Time;durP1;ratioP1;P1;durP2;ratioP2;P2;SDS_P1;SDS_P2;PMS_P1;PMS_P2;Temp;Humidity;BMP_temperature;BMP_pressure;BME280_temperature;BME280_humidity;BME280_pressure;Samples;Min_cycle;Max_cycle;Signal;HPM_P1;HPM_P2
2023/11/25 12:51:44;;;;;;;17.40;8.10;;;;;;;4.99;72.01;97696.02;79889;1299;3011677;-68
2023/11/25 12:54:14;;;;;;;17.70;7.10;;;;;;;4.97;72.31;97695.27;78720;1304;3011579;-67
2023/11/25 12:56:42;;;;;;;17.40;7.20;;;;;;;5.01;71.98;97688.59;79153;1305;3013121;-67
2023/11/25 12:59:09;;;;;;;13.80;7.20;;;;;;;4.95;72.58;97684.84;79320;1304;3011779;-66
2023/11/25 13:01:38;;;;;;;13.50;6.70;;;;;;;4.88;72.96;97685.10;77993;1304;3050613;-66
2023/11/25 13:04:05;;;;;;;10.50;6.10;;;;;;;4.79;73.26;97682.55;76875;1300;3576161;-66
2023/11/25 13:06:59;;;;;;;14.70;5.90;;;;;;;4.73;73.62;97685.23;79542;1297;3011335;-67
2023/11/25 13:09:28;;;;;;;17.60;6.40;;;;;;;4.66;73.92;97691.86;78308;1301;3050276;-68
2023/11/25 13:11:55;;;;;;;12.90;5.90;;;;;;;4.67;74.01;97689.90;79481;1298;3013106;-68
2023/11/25 13:14:22;;;;;;;9.80;5.60;;;;;;;4.73;73.85;97690.27;79268;1295;3011657;-68
2023/11/25 13:16:50;;;;;;;14.20;5.20;;;;;;;4.71;73.36;97688.67;78493;1298;3051374;-68
2023/11/25 13:19:18;;;;;;;13.00;6.00;;;;;;;4.58;73.87;97689.95;79527;1298;3012441;-67
2023/11/25 13:21:45;;;;;;;16.10;6.10;;;;;;;4.49;74.36;97680.19;79410;1294;3012058;-67
2023/11/25 13:24:14;;;;;;;10.70;5.60;;;;;;;4.42;74.82;97680.29;78505;1297;3050052;-67
2023/11/25 13:26:40;;;;;;;14.90;5.50;;;;;;;4.32;75.05;97675.85;79688;1298;3013924;-65
2023/11/25 13:29:07;;;;;;;12.00;5.50;;;;;;;4.33;75.01;97683.77;79722;1300;3011751;-65
2023/11/25 13:31:38;;;;;;;12.00;5.80;;;;;;;4.39;74.90;97679.89;78382;1298;3051526;-69
2023/11/25 13:34:05;;;;;;;12.90;5.80;;;;;;;4.39;75.07;97678.20;79550;1298;3012893;-67
2023/11/25 13:36:32;;;;;;;13.60;5.50;;;;;;;4.29;75.57;97673.62;79679;1294;3012079;-67
2023/11/25 13:39:03;;;;;;;15.80;5.70;;;;;;;4.29;75.89;97673.43;78386;1297;3049775;-66
2023/11/25 13:41:31;;;;;;;13.20;6.20;;;;;;;4.36;75.94;97664.34;79658;1297;3011887;-67
2023/11/25 13:43:59;;;;;;;13.60;5.90;;;;;;;4.41;75.54;97658.30;78426;1298;3027459;-68
2023/11/25 13:46:26;;;;;;;15.30;6.60;;;;;;;4.44;75.50;97657.39;79741;1298;3015897;-66
2023/11/25 13:48:53;;;;;;;15.50;6.00;;;;;;;4.43;75.49;97656.13;79597;1298;3013485;-66
2023/11/25 13:51:22;;;;;;;13.30;6.40;;;;;;;4.41;75.61;97649.95;78411;1298;3051463;-68
2023/11/25 13:53:48;;;;;;;13.40;5.90;;;;;;;4.38;76.01;97644.80;79654;1298;3020559;-66
2023/11/25 13:56:15;;;;;;;15.80;6.00;;;;;;;4.39;76.06;97640.58;79505;1295;3011913;-67
2023/11/25 13:58:43;;;;;;;13.80;5.70;;;;;;;4.40;76.05;97634.45;78489;1296;3025926;-67
2023/11/25 14:01:11;;;;;;;14.90;6.80;;;;;;;4.39;75.99;97635.40;79563;1297;3014090;-68
2023/11/25 14:03:38;;;;;;;15.70;6.10;;;;;;;4.34;76.21;97641.09;79750;1299;3011891;-65
2023/11/25 14:06:07;;;;;;;17.20;6.90;;;;;;;4.33;76.53;97636.09;78368;1295;3050922;-66
2023/11/25 14:08:35;;;;;;;15.40;5.90;;;;;;;4.42;76.27;97632.45;79554;1295;3011950;-66
2023/11/25 14:11:04;;;;;;;14.90;6.00;;;;;;;4.45;76.05;97641.09;79331;1294;3011710;-66
2023/11/25 14:13:33;;;;;;;13.70;5.80;;;;;;;4.40;76.20;97648.13;78099;1298;3050042;-67
2023/11/25 14:16:01;;;;;;;20.00;6.60;;;;;;;4.39;76.23;97641.10;79514;1298;3018491;-65
2023/11/25 14:18:28;;;;;;;13.20;7.00;;;;;;;4.37;76.30;97640.21;79590;1298;3011959;-67
2023/11/25 14:20:56;;;;;;;16.00;7.80;;;;;;;4.34;76.43;97639.64;78420;1298;3050425;-69
2023/11/25 14:23:23;;;;;;;17.10;7.40;;;;;;;4.37;76.48;97638.42;79772;1296;3014771;-66
2023/11/25 14:25:50;;;;;;;22.30;8.30;;;;;;;4.33;76.69;97640.75;79673;1294;3011930;-67
2023/11/25 14:28:18;;;;;;;17.80;8.00;;;;;;;4.33;76.91;97639.19;78435;1296;3048948;-68
2023/11/25 14:30:45;;;;;;;16.80;8.70;;;;;;;4.39;76.69;97635.19;79665;1298;3013125;-67
2023/11/25 14:33:13;;;;;;;16.70;6.40;;;;;;;4.33;76.99;97636.63;79656;1298;3011918;-66
2023/11/25 14:35:43;;;;;;;15.50;7.30;;;;;;;4.89;76.22;97630.70;78603;1294;3050984;-68
2023/11/25 14:38:11;;;;;;;23.60;8.50;;;;;;;5.47;73.68;97627.84;79564;1296;3013693;-68
2023/11/25 14:40:40;;;;;;;16.00;7.30;;;;;;;5.49;73.00;97631.57;79264;1294;3013109;-65
2023/11/25 14:43:07;;;;;;;20.40;8.10;;;;;;;5.47;73.06;97631.13;79639;1297;3019189;-66
2023/11/25 14:45:34;;;;;;;15.90;7.30;;;;;;;5.37;73.16;97636.73;79758;1296;3011954;-68
2023/11/25 14:48:04;;;;;;;14.10;6.50;;;;;;;5.29;73.42;97640.23;78332;1298;3051890;-67
2023/11/25 14:50:31;;;;;;;15.90;7.10;;;;;;;5.07;73.87;97639.58;79570;1297;3011805;-65
2023/11/25 14:52:59;;;;;;;17.60;7.60;;;;;;;4.92;74.45;97642.69;79952;1296;3013548;-66
2023/11/25 14:55:27;;;;;;;16.10;7.90;;;;;;;4.86;74.84;97645.31;78240;1298;3048749;-67
2023/11/25 14:57:56;;;;;;;17.40;8.30;;;;;;;4.83;75.03;97643.98;79644;1297;3013262;-65
2023/11/25 15:00:23;;;;;;;22.60;7.80;;;;;;;4.85;74.99;97645.18;79365;1295;3011599;-66
2023/11/25 15:02:51;;;;;;;15.10;7.00;;;;;;;4.82;74.91;97646.44;78240;1297;3052576;-67
2023/11/25 15:05:18;;;;;;;21.50;8.20;;;;;;;4.80;75.04;97647.98;79474;1296;3014008;-65
2023/11/25 15:07:46;;;;;;;20.70;8.70;;;;;;;4.78;74.97;97643.05;79910;1295;3011760;-67
2023/11/25 15:10:14;;;;;;;17.40;8.00;;;;;;;4.69;75.28;97642.96;78115;1298;3048683;-66
2023/11/25 15:12:41;;;;;;;13.50;7.20;;;;;;;4.61;75.87;97638.83;79402;1296;3014914;-64
2023/11/25 15:15:09;;;;;;;13.70;6.50;;;;;;;4.52;76.00;97640.05;79583;1298;3011533;-68
2023/11/25 15:17:37;;;;;;;13.90;5.90;;;;;;;4.42;75.96;97634.70;78442;1299;3051797;-68
2023/11/25 20:51:24;;;;;;;1.10;0.80;;;;;;;1.73;87.55;97211.52;80207;1301;3013384;-67
2023/11/25 20:53:52;;;;;;;1.30;0.70;;;;;;;2.58;85.49;97201.89;78982;1303;3012074;-68
2023/11/25 20:56:20;;;;;;;1.00;0.60;;;;;;;2.98;83.02;97201.91;78264;1302;3050582;-68
2023/11/25 20:58:46;;;;;;;2.10;1.10;;;;;;;2.91;82.63;97200.16;79409;1299;3018635;-71
2023/11/25 21:01:14;;;;;;;1.90;1.20;;;;;;;2.87;82.25;97185.36;79426;1298;3012166;-70
2023/11/25 21:03:41;;;;;;;2.80;0.90;;;;;;;2.63;82.56;97179.98;75214;1298;3646050;-69
2023/11/25 21:06:08;;;;;;;3.30;1.10;;;;;;;2.51;82.99;97175.77;79615;1296;3018690;-71
2023/11/25 21:08:35;;;;;;;1.70;1.10;;;;;;;2.34;83.75;97177.54;79385;1303;3013372;-72
2023/11/25 21:11:04;;;;;;;2.10;1.20;;;;;;;2.12;84.80;97176.83;78414;1300;3049651;-72
2023/11/25 21:13:32;;;;;;;2.10;1.00;;;;;;;2.09;85.21;97180.64;79522;1300;3013049;-67
2023/11/25 21:15:59;;;;;;;2.10;0.90;;;;;;;2.02;85.78;97179.52;79516;1300;3013228;-72
2023/11/25 21:18:27;;;;;;;0.50;0.40;;;;;;;1.94;86.35;97172.46;80710;1297;3050600;-71
2023/11/25 21:20:54;;;;;;;1.30;0.70;;;;;;;2.34;85.90;97155.42;81958;1296;3018878;-72
2023/11/25 21:23:28;;;;;;;2.00;0.90;;;;;;;2.73;83.77;97142.70;80690;1295;3052512;-72
2023/11/25 21:25:55;;;;;;;1.10;0.80;;;;;;;2.89;83.33;97137.69;81973;1297;3012906;-73
2023/11/25 21:28:23;;;;;;;2.30;1.20;;;;;;;2.71;83.20;97126.74;81969;1300;3011175;-66
2023/11/25 21:30:52;;;;;;;1.40;0.90;;;;;;;2.60;83.88;97114.70;80714;1296;3069674;-69
2023/11/25 21:33:19;;;;;;;1.80;0.80;;;;;;;2.59;83.97;97107.88;82023;1295;3012437;-68
2023/11/25 21:35:46;;;;;;;1.60;1.00;;;;;;;2.43;84.28;97098.51;81962;1296;3011445;-72
2023/11/25 21:38:14;;;;;;;1.70;1.20;;;;;;;2.29;84.71;97082.80;80683;1295;3052763;-75
2023/11/25 21:40:41;;;;;;;3.30;1.50;;;;;;;2.22;84.94;97092.98;81973;1298;3018173;-70
2023/11/25 21:43:08;;;;;;;5.40;1.70;;;;;;;2.27;85.04;97100.77;81978;1296;3011127;-77
2023/11/25 21:45:36;;;;;;;2.20;1.90;;;;;;;2.14;85.09;97083.13;80723;1296;3026169;-66
2023/11/25 21:48:03;;;;;;;1.90;1.00;;;;;;;2.12;85.65;97085.16;82011;1300;3013246;-63
2023/11/25 21:50:30;;;;;;;1.20;1.00;;;;;;;2.66;85.12;97082.83;81923;1296;3011210;-69
2023/11/25 21:52:59;;;;;;;1.10;0.80;;;;;;;3.29;82.91;97089.50;80710;1296;3051305;-67
2023/11/25 21:55:26;;;;;;;0.90;0.70;;;;;;;3.47;81.71;97078.90;81975;1300;3012651;-64
2023/11/25 21:57:53;;;;;;;1.40;0.70;;;;;;;3.42;81.47;97073.73;81983;1300;3011256;-68
2023/11/25 22:00:21;;;;;;;1.20;0.70;;;;;;;3.14;81.54;97068.88;80727;1296;3067556;-69
2023/11/25 22:02:48;;;;;;;3.80;0.80;;;;;;;3.00;82.34;97061.88;81974;1295;3018861;-69
2023/11/25 22:05:15;;;;;;;1.70;0.70;;;;;;;2.90;82.51;97047.38;81964;1296;3011199;-71
2023/11/25 22:07:43;;;;;;;0.80;0.50;;;;;;;2.85;82.32;97047.36;80750;1295;3026712;-67
2023/11/25 22:10:10;;;;;;;1.90;0.80;;;;;;;2.60;82.91;97054.20;82003;1295;3018471;-70
2023/11/25 22:12:37;;;;;;;1.10;0.60;;;;;;;2.42;84.07;97039.28;81993;1295;3011562;-66
2023/11/25 22:15:05;;;;;;;0.70;0.50;;;;;;;2.46;84.14;97031.97;80746;1296;3069642;-69
2023/11/25 22:17:32;;;;;;;0.70;0.40;;;;;;;2.47;84.05;97022.38;82016;1295;3012636;-66
2023/11/25 22:19:59;;;;;;;1.40;0.80;;;;;;;2.90;83.56;97015.58;81993;1296;3011390;-68
2023/11/25 22:22:27;;;;;;;0.50;0.50;;;;;;;3.46;81.70;97007.01;80720;1297;3052111;-70
2023/11/25 22:24:58;;;;;;;0.30;0.30;;;;;;;3.55;80.83;97016.55;81985;1295;3012637;-68
2023/11/25 22:27:28;;;;;;;0.80;0.60;;;;;;;3.52;80.87;97023.89;80724;1297;3051365;-69
2023/11/25 22:29:55;;;;;;;1.10;0.50;;;;;;;3.24;81.22;97033.13;81997;1296;3012621;-69
2023/11/25 22:32:22;;;;;;;0.80;0.70;;;;;;;2.94;82.22;97027.20;82011;1296;3011649;-70
2023/11/25 22:34:50;;;;;;;1.10;0.70;;;;;;;2.76;83.05;97022.05;80747;1296;3049495;-65
2023/11/25 22:37:17;;;;;;;2.00;0.80;;;;;;;2.49;84.07;97015.00;82016;1296;3012586;-69
2023/11/25 22:39:45;;;;;;;1.80;1.00;;;;;;;2.41;85.01;97003.09;81982;1295;3012121;-67
2023/11/25 22:42:14;;;;;;;1.60;0.90;;;;;;;2.43;84.93;97013.02;80724;1299;3050533;-71
2023/11/25 22:44:41;;;;;;;1.20;0.70;;;;;;;2.28;85.54;97019.87;82004;1297;3012478;-70
2023/11/25 22:47:07;;;;;;;2.50;0.60;;;;;;;2.33;85.90;97006.52;81968;1296;3011349;-67
2023/11/25 22:49:35;;;;;;;1.20;0.70;;;;;;;2.89;84.77;96984.80;80710;1295;3050297;-71
2023/11/25 22:52:02;;;;;;;1.20;0.90;;;;;;;3.29;82.50;96975.33;81954;1295;3013276;-72
2023/11/25 22:54:30;;;;;;;1.70;0.90;;;;;;;3.32;82.06;96969.88;82028;1295;3011243;-70
2023/11/25 22:57:00;;;;;;;1.60;1.10;;;;;;;3.21;82.23;96964.09;80760;1295;3051728;-68
2023/11/25 22:59:27;;;;;;;3.70;1.10;;;;;;;2.79;83.42;96968.20;81992;1300;3011385;-65
2023/11/25 23:01:53;;;;;;;2.30;1.20;;;;;;;2.80;84.04;96955.16;82032;1295;3011193;-69
2023/11/25 23:04:21;;;;;;;3.30;1.30;;;;;;;2.71;84.04;96960.30;80738;1296;3049681;-66
2023/11/25 23:06:48;;;;;;;2.00;1.30;;;;;;;2.59;84.66;96947.98;82038;1295;3018045;-67
2023/11/25 23:09:15;;;;;;;1.50;1.20;;;;;;;2.55;84.82;96933.58;81986;1296;3010944;-71
2023/11/25 23:11:43;;;;;;;1.40;0.90;;;;;;;2.47;85.12;96916.45;80745;1295;3026065;-69
2023/11/25 23:14:10;;;;;;;1.30;0.80;;;;;;;2.44;85.01;96914.45;82034;1295;3012526;-69
2023/11/25 23:16:37;;;;;;;0.50;0.40;;;;;;;2.49;84.91;96916.48;81985;1295;3011416;-71
2023/11/25 23:19:05;;;;;;;1.00;0.50;;;;;;;2.98;84.06;96905.36;80738;1296;3025515;-65
2023/11/25 23:21:32;;;;;;;2.10;1.20;;;;;;;3.58;82.05;96903.83;82024;1295;3012427;-69
2023/11/25 23:23:59;;;;;;;0.80;0.50;;;;;;;3.61;81.29;96901.39;81987;1296;3011318;-68
2023/11/25 23:26:27;;;;;;;0.50;0.50;;;;;;;3.51;81.32;96904.30;80773;1296;3026988;-71
2023/11/25 23:28:54;;;;;;;0.60;0.40;;;;;;;3.45;81.44;96906.30;82022;1296;3012541;-70
2023/11/25 23:31:21;;;;;;;1.00;0.40;;;;;;;3.11;81.98;96900.80;81991;1296;3011448;-70
2023/11/25 23:33:49;;;;;;;0.80;0.40;;;;;;;2.88;82.72;96898.77;80744;1295;3048491;-69
2023/11/25 23:36:16;;;;;;;1.20;0.60;;;;;;;2.83;83.32;96889.30;82001;1296;3013169;-69
2023/11/25 23:38:43;;;;;;;0.30;0.30;;;;;;;2.84;83.03;96881.60;81997;1296;3011298;-66
2023/11/25 23:41:11;;;;;;;0.20;0.20;;;;;;;2.76;82.85;96872.86;80740;1297;3026386;-66
2023/11/25 23:43:38;;;;;;;0.30;0.30;;;;;;;2.61;83.48;96871.95;82035;1296;3013222;-73
2023/11/25 23:46:05;;;;;;;0.50;0.30;;;;;;;2.54;83.76;96875.77;81984;1295;3011262;-67
2023/11/25 23:48:35;;;;;;;0.70;0.60;;;;;;;3.02;83.73;96874.45;80740;1296;3048291;-70
2023/11/25 23:51:02;;;;;;;0.80;0.40;;;;;;;3.51;81.74;96869.91;82016;1295;3011336;-70
2023/11/25 23:53:31;;;;;;;0.40;0.20;;;;;;;3.64;81.30;96856.29;81441;1296;3011748;-71
2023/11/25 23:55:58;;;;;;;0.90;0.40;;;;;;;3.51;80.90;96855.38;81985;1296;3013288;-68
2023/11/25 23:58:25;;;;;;;1.30;0.50;;;;;;;3.25;81.68;96841.65;81994;1297;3011259;-68
